This is the latest recevied weather packets stored in our database for station/object K4AVM-13. If no packets are shown the sender has not sent any weather packets the latest 1 day(s).
| Time | Temp. | Humidity | Pressure | Rain* | Wind** | Luminosity | Snow |
|---|---|---|---|---|---|---|---|
| 1778095957 | 20° C | 86% | 1010.9 hPa | 0 mm | - | 175 W/m² | - |
| 1778095653 | 20° C | 86% | 1011.2 hPa | 0 mm | - | 145 W/m² | - |
| 1778095350 | 20° C | 87% | 1011.1 hPa | 0 mm | - | 147 W/m² | - |
| 1778095047 | 20° C | 87% | 1011.3 hPa | 0 mm | - | 153 W/m² | - |
| 1778094743 | 19.44° C | 87% | 1011.5 hPa | 0 mm | - | 164 W/m² | - |
| 1778093834 | 18.89° C | 89% | 1011.8 hPa | 0 mm | - | 137 W/m² | - |
| 1778093530 | 18.89° C | 90% | 1011.8 hPa | 0 mm | - | 134 W/m² | - |
| 1778092015 | 19.44° C | 87% | 1012.2 hPa | 0 mm | - | 107 W/m² | - |
| 1778091404 | 19.44° C | 87% | 1012.5 hPa | 0 mm | - | 129 W/m² | - |
| 1778090798 | 19.44° C | 86% | 1012.5 hPa | 0 mm | - | 170 W/m² | - |
| 1778089887 | 19.44° C | 86% | 1012.5 hPa | 0 mm | - | 172 W/m² | - |
| 1778089586 | 19.44° C | 86% | 1012.5 hPa | 0 mm | - | 186 W/m² | - |
| 1778088070 | 18.89° C | 86% | 1012.4 hPa | 0 mm | - | 105 W/m² | - |
| 1778087768 | 18.89° C | 86% | 1012.4 hPa | 0 mm | - | 143 W/m² | - |
| 1778087465 | 18.89° C | 86% | 1012.9 hPa | 0 mm | - | 172 W/m² | - |
| 1778086854 | 18.89° C | 88% | 1013.1 hPa | 0 mm | - | 129 W/m² | - |
| 1778085338 | 18.89° C | 89% | 1013 hPa | 0 mm | - | 197 W/m² | - |
| 1778084422 | 17.78° C | 91% | 1012.9 hPa | 0 mm | - | 188 W/m² | - |
| 1778083514 | 16.67° C | 95% | 1012.8 hPa | 0 mm | - | 78 W/m² | - |
| 1778083211 | 16.67° C | 95% | 1013 hPa | 0 mm | - | 86 W/m² | - |
| 1778080591 | 16.67° C | 98% | 1013.8 hPa | 0 mm | - | 84 W/m² | - |
| 1778079984 | 16.11° C | 97% | 1013.9 hPa | 0 mm | - | 163 W/m² | - |
| 1778079075 | 16.11° C | 95% | 1014 hPa | 4.83 mm | - | 63 W/m² | - |
| 1778078772 | 16.11° C | 94% | 1014.2 hPa | 3.05 mm | - | 36 W/m² | - |
| 1778076656 | 17.78° C | 86% | 1014.1 hPa | 3.05 mm | - | 134 W/m² | - |
* Rain latest hour (hover to see other rain measurements)
** Current wind speed in m/s (hover to see current wind gust speed)